sensor_id;sensor_type;location;lat;lon;timestamp;P1;durP1;ratioP1;P2;durP2;ratioP2
49858;SDS011;35756;52.346;13.622;2022-12-11T00:01:20;222.00;;;211.15;;
49858;SDS011;35756;52.346;13.622;2022-12-11T00:03:46;62.15;;;58.20;;
49858;SDS011;35756;52.346;13.622;2022-12-11T00:06:12;88.03;;;82.65;;
49858;SDS011;35756;52.346;13.622;2022-12-11T00:08:39;213.77;;;203.02;;
49858;SDS011;35756;52.346;13.622;2022-12-11T00:11:07;263.25;;;249.90;;
49858;SDS011;35756;52.346;13.622;2022-12-11T00:13:32;299.88;;;285.40;;
49858;SDS011;35756;52.346;13.622;2022-12-11T00:15:58;396.42;;;377.77;;
49858;SDS011;35756;52.346;13.622;2022-12-11T00:18:23;384.05;;;365.48;;
49858;SDS011;35756;52.346;13.622;2022-12-11T00:20:48;412.33;;;392.67;;
49858;SDS011;35756;52.346;13.622;2022-12-11T00:23:14;447.20;;;425.70;;
49858;SDS011;35756;52.346;13.622;2022-12-11T00:25:40;404.98;;;385.05;;
49858;SDS011;35756;52.346;13.622;2022-12-11T00:28:06;447.95;;;426.52;;
49858;SDS011;35756;52.346;13.622;2022-12-11T00:30:31;424.42;;;404.00;;
49858;SDS011;35756;52.346;13.622;2022-12-11T00:32:57;473.83;;;450.58;;
49858;SDS011;35756;52.346;13.622;2022-12-11T00:35:22;540.42;;;514.15;;
49858;SDS011;35756;52.346;13.622;2022-12-11T00:37:47;527.80;;;501.48;;
49858;SDS011;35756;52.346;13.622;2022-12-11T00:40:12;515.50;;;489.60;;
49858;SDS011;35756;52.346;13.622;2022-12-11T00:42:38;527.00;;;501.20;;
49858;SDS011;35756;52.346;13.622;2022-12-11T00:45:03;477.17;;;453.25;;
49858;SDS011;35756;52.346;13.622;2022-12-11T00:47:29;495.73;;;471.63;;
49858;SDS011;35756;52.346;13.622;2022-12-11T00:49:54;523.10;;;496.63;;
49858;SDS011;35756;52.346;13.622;2022-12-11T00:52:19;527.20;;;501.02;;
49858;SDS011;35756;52.346;13.622;2022-12-11T00:54:44;516.65;;;490.88;;
49858;SDS011;35756;52.346;13.622;2022-12-11T00:57:10;502.40;;;478.23;;
49858;SDS011;35756;52.346;13.622;2022-12-11T00:59:35;506.83;;;482.00;;
49858;SDS011;35756;52.346;13.622;2022-12-11T01:02:00;523.78;;;498.40;;
49858;SDS011;35756;52.346;13.622;2022-12-11T01:04:26;528.75;;;502.30;;
49858;SDS011;35756;52.346;13.622;2022-12-11T01:06:51;554.13;;;525.58;;
49858;SDS011;35756;52.346;13.622;2022-12-11T01:09:16;561.35;;;532.95;;
49858;SDS011;35756;52.346;13.622;2022-12-11T01:12:00;543.03;;;516.90;;
49858;SDS011;35756;52.346;13.622;2022-12-11T01:14:25;522.67;;;497.63;;
49858;SDS011;35756;52.346;13.622;2022-12-11T01:16:51;504.08;;;480.02;;
49858;SDS011;35756;52.346;13.622;2022-12-11T01:19:17;532.60;;;506.25;;
49858;SDS011;35756;52.346;13.622;2022-12-11T01:21:42;524.28;;;499.20;;
49858;SDS011;35756;52.346;13.622;2022-12-11T01:24:08;521.38;;;495.70;;
49858;SDS011;35756;52.346;13.622;2022-12-11T01:26:33;551.40;;;523.78;;
49858;SDS011;35756;52.346;13.622;2022-12-11T01:28:58;501.67;;;477.65;;
49858;SDS011;35756;52.346;13.622;2022-12-11T01:31:24;505.48;;;480.77;;
49858;SDS011;35756;52.346;13.622;2022-12-11T01:33:49;510.05;;;485.65;;
49858;SDS011;35756;52.346;13.622;2022-12-11T01:36:18;506.52;;;482.48;;
49858;SDS011;35756;52.346;13.622;2022-12-11T01:38:45;520.13;;;494.63;;
49858;SDS011;35756;52.346;13.622;2022-12-11T01:41:11;484.20;;;461.40;;
49858;SDS011;35756;52.346;13.622;2022-12-11T01:46:20;484.60;;;461.33;;
49858;SDS011;35756;52.346;13.622;2022-12-11T01:48:45;456.92;;;435.77;;
49858;SDS011;35756;52.346;13.622;2022-12-11T01:51:11;431.80;;;411.48;;
49858;SDS011;35756;52.346;13.622;2022-12-11T01:53:40;400.98;;;381.98;;
49858;SDS011;35756;52.346;13.622;2022-12-11T01:56:07;407.90;;;388.33;;
49858;SDS011;35756;52.346;13.622;2022-12-11T01:58:36;408.17;;;388.63;;
49858;SDS011;35756;52.346;13.622;2022-12-11T02:01:06;451.23;;;429.73;;
49858;SDS011;35756;52.346;13.622;2022-12-11T02:03:35;379.20;;;361.08;;
49858;SDS011;35756;52.346;13.622;2022-12-11T02:06:01;398.13;;;379.58;;
49858;SDS011;35756;52.346;13.622;2022-12-11T02:08:26;428.63;;;408.05;;
49858;SDS011;35756;52.346;13.622;2022-12-11T02:13:36;439.40;;;418.60;;
49858;SDS011;35756;52.346;13.622;2022-12-11T02:16:11;427.60;;;407.33;;
49858;SDS011;35756;52.346;13.622;2022-12-11T02:18:45;434.52;;;413.02;;
49858;SDS011;35756;52.346;13.622;2022-12-11T02:21:36;432.08;;;410.95;;
49858;SDS011;35756;52.346;13.622;2022-12-11T02:26:55;440.83;;;419.80;;
49858;SDS011;35756;52.346;13.622;2022-12-11T02:29:33;447.23;;;426.10;;
49858;SDS011;35756;52.346;13.622;2022-12-11T02:32:03;444.58;;;422.60;;
49858;SDS011;35756;52.346;13.622;2022-12-11T02:34:39;392.52;;;374.63;;
49858;SDS011;35756;52.346;13.622;2022-12-11T02:37:08;423.52;;;403.13;;
49858;SDS011;35756;52.346;13.622;2022-12-11T02:39:37;417.80;;;398.08;;
49858;SDS011;35756;52.346;13.622;2022-12-11T02:42:04;377.73;;;359.20;;
49858;SDS011;35756;52.346;13.622;2022-12-11T02:44:31;372.08;;;354.23;;
49858;SDS011;35756;52.346;13.622;2022-12-11T02:46:57;356.73;;;339.73;;
49858;SDS011;35756;52.346;13.622;2022-12-11T02:49:23;350.88;;;334.33;;
49858;SDS011;35756;52.346;13.622;2022-12-11T02:51:50;391.65;;;373.38;;
49858;SDS011;35756;52.346;13.622;2022-12-11T02:54:17;414.63;;;394.50;;
49858;SDS011;35756;52.346;13.622;2022-12-11T02:56:49;426.60;;;406.55;;
49858;SDS011;35756;52.346;13.622;2022-12-11T02:59:22;436.98;;;416.10;;
49858;SDS011;35756;52.346;13.622;2022-12-11T03:01:53;422.98;;;402.55;;
49858;SDS011;35756;52.346;13.622;2022-12-11T03:04:18;449.67;;;427.67;;
49858;SDS011;35756;52.346;13.622;2022-12-11T03:06:48;451.90;;;429.95;;
49858;SDS011;35756;52.346;13.622;2022-12-11T03:09:16;479.48;;;456.02;;
49858;SDS011;35756;52.346;13.622;2022-12-11T03:11:41;466.30;;;442.88;;
49858;SDS011;35756;52.346;13.622;2022-12-11T03:14:07;515.95;;;491.25;;
49858;SDS011;35756;52.346;13.622;2022-12-11T03:16:33;517.40;;;491.02;;
49858;SDS011;35756;52.346;13.622;2022-12-11T03:19:15;483.42;;;459.75;;
49858;SDS011;35756;52.346;13.622;2022-12-11T03:21:46;512.67;;;487.48;;
49858;SDS011;35756;52.346;13.622;2022-12-11T03:24:59;527.97;;;501.17;;
49858;SDS011;35756;52.346;13.622;2022-12-11T03:27:12;513.90;;;488.73;;
49858;SDS011;35756;52.346;13.622;2022-12-11T03:29:42;538.65;;;511.13;;
49858;SDS011;35756;52.346;13.622;2022-12-11T03:32:26;516.35;;;490.33;;
49858;SDS011;35756;52.346;13.622;2022-12-11T03:34:56;498.83;;;474.45;;
49858;SDS011;35756;52.346;13.622;2022-12-11T03:37:24;471.88;;;448.05;;
49858;SDS011;35756;52.346;13.622;2022-12-11T03:39:55;523.00;;;497.35;;
49858;SDS011;35756;52.346;13.622;2022-12-11T03:42:21;480.17;;;456.50;;
49858;SDS011;35756;52.346;13.622;2022-12-11T03:44:47;467.65;;;445.50;;
49858;SDS011;35756;52.346;13.622;2022-12-11T03:47:14;452.08;;;430.02;;
49858;SDS011;35756;52.346;13.622;2022-12-11T03:49:42;498.13;;;473.70;;
49858;SDS011;35756;52.346;13.622;2022-12-11T03:52:08;447.98;;;425.85;;
49858;SDS011;35756;52.346;13.622;2022-12-11T03:54:34;471.25;;;447.88;;
49858;SDS011;35756;52.346;13.622;2022-12-11T03:57:01;493.88;;;470.20;;
49858;SDS011;35756;52.346;13.622;2022-12-11T03:59:28;501.88;;;477.80;;
49858;SDS011;35756;52.346;13.622;2022-12-11T04:01:53;490.20;;;466.40;;
49858;SDS011;35756;52.346;13.622;2022-12-11T04:04:18;479.58;;;456.05;;
49858;SDS011;35756;52.346;13.622;2022-12-11T04:06:44;497.30;;;472.77;;
49858;SDS011;35756;52.346;13.622;2022-12-11T04:09:10;513.13;;;487.83;;
49858;SDS011;35756;52.346;13.622;2022-12-11T04:11:35;537.90;;;511.65;;
49858;SDS011;35756;52.346;13.622;2022-12-11T04:14:13;509.50;;;485.30;;
49858;SDS011;35756;52.346;13.622;2022-12-11T04:16:57;491.25;;;467.27;;
49858;SDS011;35756;52.346;13.622;2022-12-11T04:19:23;489.08;;;464.65;;
49858;SDS011;35756;52.346;13.622;2022-12-11T04:22:11;508.90;;;484.13;;
49858;SDS011;35756;52.346;13.622;2022-12-11T04:24:56;501.17;;;476.17;;
49858;SDS011;35756;52.346;13.622;2022-12-11T04:27:21;495.70;;;470.80;;
49858;SDS011;35756;52.346;13.622;2022-12-11T04:30:07;532.80;;;506.25;;
49858;SDS011;35756;52.346;13.622;2022-12-11T04:32:34;452.00;;;429.52;;
49858;SDS011;35756;52.346;13.622;2022-12-11T04:34:59;490.30;;;466.27;;
49858;SDS011;35756;52.346;13.622;2022-12-11T04:37:25;496.98;;;472.20;;
49858;SDS011;35756;52.346;13.622;2022-12-11T04:39:51;449.10;;;426.83;;
49858;SDS011;35756;52.346;13.622;2022-12-11T04:42:16;482.38;;;457.95;;
49858;SDS011;35756;52.346;13.622;2022-12-11T04:44:41;494.50;;;469.00;;
49858;SDS011;35756;52.346;13.622;2022-12-11T04:47:07;504.85;;;480.08;;
49858;SDS011;35756;52.346;13.622;2022-12-11T04:49:32;499.35;;;474.38;;
49858;SDS011;35756;52.346;13.622;2022-12-11T04:51:57;504.77;;;479.02;;
49858;SDS011;35756;52.346;13.622;2022-12-11T04:54:23;478.80;;;454.35;;
49858;SDS011;35756;52.346;13.622;2022-12-11T04:56:48;547.97;;;520.08;;
49858;SDS011;35756;52.346;13.622;2022-12-11T04:59:14;509.67;;;483.38;;
49858;SDS011;35756;52.346;13.622;2022-12-11T05:01:39;537.85;;;510.08;;
49858;SDS011;35756;52.346;13.622;2022-12-11T05:04:04;527.40;;;500.50;;
49858;SDS011;35756;52.346;13.622;2022-12-11T05:06:29;508.33;;;483.40;;
49858;SDS011;35756;52.346;13.622;2022-12-11T05:08:55;506.92;;;481.65;;
49858;SDS011;35756;52.346;13.622;2022-12-11T05:11:20;455.63;;;432.80;;
49858;SDS011;35756;52.346;13.622;2022-12-11T05:13:45;483.65;;;459.48;;
49858;SDS011;35756;52.346;13.622;2022-12-11T05:16:12;471.05;;;448.38;;
49858;SDS011;35756;52.346;13.622;2022-12-11T05:18:38;434.60;;;412.90;;
49858;SDS011;35756;52.346;13.622;2022-12-11T05:21:05;429.05;;;408.38;;
49858;SDS011;35756;52.346;13.622;2022-12-11T05:23:31;378.92;;;360.42;;
49858;SDS011;35756;52.346;13.622;2022-12-11T05:25:58;413.73;;;392.92;;
49858;SDS011;35756;52.346;13.622;2022-12-11T05:28:25;437.90;;;416.95;;
49858;SDS011;35756;52.346;13.622;2022-12-11T05:30:55;425.55;;;405.17;;
49858;SDS011;35756;52.346;13.622;2022-12-11T05:33:21;448.55;;;426.38;;
49858;SDS011;35756;52.346;13.622;2022-12-11T05:35:47;450.23;;;427.42;;
49858;SDS011;35756;52.346;13.622;2022-12-11T05:38:12;443.58;;;421.95;;
49858;SDS011;35756;52.346;13.622;2022-12-11T05:40:37;443.60;;;422.17;;
49858;SDS011;35756;52.346;13.622;2022-12-11T05:43:03;416.70;;;396.33;;
49858;SDS011;35756;52.346;13.622;2022-12-11T05:45:28;463.23;;;441.02;;
49858;SDS011;35756;52.346;13.622;2022-12-11T05:47:53;476.92;;;453.10;;
49858;SDS011;35756;52.346;13.622;2022-12-11T05:50:19;513.40;;;488.23;;
49858;SDS011;35756;52.346;13.622;2022-12-11T05:52:44;481.98;;;458.13;;
49858;SDS011;35756;52.346;13.622;2022-12-11T05:55:09;499.17;;;473.95;;
49858;SDS011;35756;52.346;13.622;2022-12-11T05:57:34;498.00;;;473.13;;
49858;SDS011;35756;52.346;13.622;2022-12-11T06:00:00;532.53;;;505.90;;
49858;SDS011;35756;52.346;13.622;2022-12-11T06:02:25;521.28;;;494.70;;
49858;SDS011;35756;52.346;13.622;2022-12-11T06:04:50;540.53;;;513.95;;
49858;SDS011;35756;52.346;13.622;2022-12-11T06:07:15;542.42;;;515.80;;
49858;SDS011;35756;52.346;13.622;2022-12-11T06:09:41;521.53;;;496.48;;
49858;SDS011;35756;52.346;13.622;2022-12-11T06:12:06;497.88;;;472.40;;
49858;SDS011;35756;52.346;13.622;2022-12-11T06:14:31;461.73;;;438.65;;
49858;SDS011;35756;52.346;13.622;2022-12-11T06:16:57;487.05;;;462.77;;
49858;SDS011;35756;52.346;13.622;2022-12-11T06:19:22;430.15;;;409.70;;
49858;SDS011;35756;52.346;13.622;2022-12-11T06:21:47;401.98;;;382.00;;
49858;SDS011;35756;52.346;13.622;2022-12-11T06:24:13;400.17;;;381.05;;
49858;SDS011;35756;52.346;13.622;2022-12-11T06:26:38;375.75;;;357.00;;
49858;SDS011;35756;52.346;13.622;2022-12-11T06:29:03;394.63;;;375.80;;
49858;SDS011;35756;52.346;13.622;2022-12-11T06:31:29;418.38;;;398.13;;
49858;SDS011;35756;52.346;13.622;2022-12-11T06:33:54;411.08;;;389.20;;
49858;SDS011;35756;52.346;13.622;2022-12-11T06:36:20;411.75;;;391.90;;
49858;SDS011;35756;52.346;13.622;2022-12-11T06:38:46;460.25;;;437.48;;
49858;SDS011;35756;52.346;13.622;2022-12-11T06:41:12;499.77;;;475.30;;
49858;SDS011;35756;52.346;13.622;2022-12-11T06:43:38;452.20;;;428.98;;
49858;SDS011;35756;52.346;13.622;2022-12-11T06:46:06;521.67;;;496.10;;
49858;SDS011;35756;52.346;13.622;2022-12-11T06:48:32;530.75;;;503.63;;
49858;SDS011;35756;52.346;13.622;2022-12-11T06:50:57;479.77;;;455.02;;
49858;SDS011;35756;52.346;13.622;2022-12-11T06:53:22;513.45;;;487.75;;
49858;SDS011;35756;52.346;13.622;2022-12-11T06:55:48;509.98;;;483.25;;
49858;SDS011;35756;52.346;13.622;2022-12-11T06:58:13;514.85;;;489.00;;
49858;SDS011;35756;52.346;13.622;2022-12-11T07:00:38;554.80;;;526.95;;
49858;SDS011;35756;52.346;13.622;2022-12-11T07:03:04;511.15;;;485.73;;
49858;SDS011;35756;52.346;13.622;2022-12-11T07:05:30;536.28;;;508.83;;
49858;SDS011;35756;52.346;13.622;2022-12-11T07:07:55;537.53;;;510.90;;
49858;SDS011;35756;52.346;13.622;2022-12-11T07:10:21;509.13;;;484.23;;
49858;SDS011;35756;52.346;13.622;2022-12-11T07:12:47;549.25;;;522.00;;
49858;SDS011;35756;52.346;13.622;2022-12-11T07:15:12;537.28;;;510.40;;
49858;SDS011;35756;52.346;13.622;2022-12-11T07:17:38;531.38;;;505.40;;
49858;SDS011;35756;52.346;13.622;2022-12-11T07:20:03;524.60;;;498.45;;
49858;SDS011;35756;52.346;13.622;2022-12-11T07:22:29;555.20;;;526.83;;
49858;SDS011;35756;52.346;13.622;2022-12-11T07:24:54;445.27;;;423.80;;
49858;SDS011;35756;52.346;13.622;2022-12-11T07:27:19;378.05;;;356.42;;
49858;SDS011;35756;52.346;13.622;2022-12-11T07:29:45;297.17;;;281.55;;
49858;SDS011;35756;52.346;13.622;2022-12-11T07:32:10;235.18;;;223.55;;
49858;SDS011;35756;52.346;13.622;2022-12-11T07:34:35;159.60;;;150.80;;
49858;SDS011;35756;52.346;13.622;2022-12-11T07:37:01;177.73;;;168.55;;
49858;SDS011;35756;52.346;13.622;2022-12-11T07:39:26;121.20;;;114.07;;
49858;SDS011;35756;52.346;13.622;2022-12-11T07:41:51;81.90;;;76.60;;
49858;SDS011;35756;52.346;13.622;2022-12-11T07:44:17;58.78;;;54.75;;
49858;SDS011;35756;52.346;13.622;2022-12-11T07:46:42;75.38;;;70.55;;
49858;SDS011;35756;52.346;13.622;2022-12-11T07:49:08;51.13;;;47.55;;
49858;SDS011;35756;52.346;13.622;2022-12-11T07:51:34;85.72;;;80.55;;
49858;SDS011;35756;52.346;13.622;2022-12-11T07:54:01;97.82;;;92.40;;
49858;SDS011;35756;52.346;13.622;2022-12-11T07:56:28;108.18;;;102.05;;
49858;SDS011;35756;52.346;13.622;2022-12-11T07:58:53;116.50;;;109.72;;
49858;SDS011;35756;52.346;13.622;2022-12-11T08:01:20;94.38;;;88.65;;
49858;SDS011;35756;52.346;13.622;2022-12-11T08:03:47;68.38;;;63.70;;
49858;SDS011;35756;52.346;13.622;2022-12-11T08:06:12;245.40;;;231.27;;
49858;SDS011;35756;52.346;13.622;2022-12-11T08:08:38;57.08;;;52.80;;
49858;SDS011;35756;52.346;13.622;2022-12-11T08:11:06;57.70;;;53.88;;
49858;SDS011;35756;52.346;13.622;2022-12-11T08:13:32;58.25;;;54.20;;
49858;SDS011;35756;52.346;13.622;2022-12-11T08:15:58;78.00;;;73.07;;
49858;SDS011;35756;52.346;13.622;2022-12-11T08:18:29;56.42;;;51.70;;
49858;SDS011;35756;52.346;13.622;2022-12-11T08:20:54;81.85;;;76.68;;
49858;SDS011;35756;52.346;13.622;2022-12-11T08:23:19;48.72;;;44.90;;
49858;SDS011;35756;52.346;13.622;2022-12-11T08:25:45;87.50;;;81.35;;
49858;SDS011;35756;52.346;13.622;2022-12-11T08:28:10;103.25;;;96.55;;
49858;SDS011;35756;52.346;13.622;2022-12-11T08:30:37;73.13;;;67.88;;
49858;SDS011;35756;52.346;13.622;2022-12-11T08:33:04;55.20;;;51.08;;
49858;SDS011;35756;52.346;13.622;2022-12-11T08:35:31;64.63;;;60.42;;
49858;SDS011;35756;52.346;13.622;2022-12-11T08:37:56;77.47;;;72.50;;
49858;SDS011;35756;52.346;13.622;2022-12-11T08:40:22;152.25;;;143.48;;
49858;SDS011;35756;52.346;13.622;2022-12-11T08:42:47;165.45;;;156.82;;
49858;SDS011;35756;52.346;13.622;2022-12-11T08:45:13;100.20;;;94.18;;
49858;SDS011;35756;52.346;13.622;2022-12-11T08:47:38;91.55;;;85.88;;
49858;SDS011;35756;52.346;13.622;2022-12-11T08:50:04;135.82;;;128.02;;
49858;SDS011;35756;52.346;13.622;2022-12-11T08:52:30;181.05;;;171.65;;
49858;SDS011;35756;52.346;13.622;2022-12-11T08:54:56;167.02;;;157.60;;
49858;SDS011;35756;52.346;13.622;2022-12-11T08:57:22;466.98;;;438.65;;
49858;SDS011;35756;52.346;13.622;2022-12-11T08:59:47;203.00;;;192.23;;
49858;SDS011;35756;52.346;13.622;2022-12-11T09:02:13;170.63;;;161.40;;
49858;SDS011;35756;52.346;13.622;2022-12-11T09:04:52;141.27;;;134.07;;
49858;SDS011;35756;52.346;13.622;2022-12-11T09:07:18;198.30;;;187.93;;
49858;SDS011;35756;52.346;13.622;2022-12-11T09:09:43;234.55;;;222.57;;
49858;SDS011;35756;52.346;13.622;2022-12-11T09:12:08;230.02;;;218.57;;
49858;SDS011;35756;52.346;13.622;2022-12-11T09:14:35;230.70;;;218.70;;
49858;SDS011;35756;52.346;13.622;2022-12-11T09:17:03;271.85;;;258.08;;
49858;SDS011;35756;52.346;13.622;2022-12-11T09:19:29;265.25;;;251.50;;
49858;SDS011;35756;52.346;13.622;2022-12-11T09:21:54;470.27;;;445.38;;
49858;SDS011;35756;52.346;13.622;2022-12-11T09:24:20;379.90;;;361.10;;
49858;SDS011;35756;52.346;13.622;2022-12-11T09:26:45;324.77;;;307.70;;
49858;SDS011;35756;52.346;13.622;2022-12-11T09:29:11;432.25;;;410.00;;
49858;SDS011;35756;52.346;13.622;2022-12-11T09:31:37;436.00;;;413.42;;
49858;SDS011;35756;52.346;13.622;2022-12-11T09:34:03;394.77;;;375.05;;
49858;SDS011;35756;52.346;13.622;2022-12-11T09:36:31;580.40;;;550.42;;
49858;SDS011;35756;52.346;13.622;2022-12-11T09:39:00;588.85;;;558.30;;
49858;SDS011;35756;52.346;13.622;2022-12-11T09:41:41;542.53;;;512.85;;
49858;SDS011;35756;52.346;13.622;2022-12-11T09:44:19;444.65;;;421.33;;
49858;SDS011;35756;52.346;13.622;2022-12-11T09:46:48;609.50;;;577.67;;
49858;SDS011;35756;52.346;13.622;2022-12-11T09:49:21;525.88;;;499.00;;
49858;SDS011;35756;52.346;13.622;2022-12-11T09:54:39;617.80;;;583.90;;
49858;SDS011;35756;52.346;13.622;2022-12-11T09:57:10;568.40;;;539.03;;
49858;SDS011;35756;52.346;13.622;2022-12-11T10:07:59;596.25;;;565.17;;
49858;SDS011;35756;52.346;13.622;2022-12-11T10:10:33;632.45;;;598.70;;
49858;SDS011;35756;52.346;13.622;2022-12-11T10:13:14;396.40;;;375.63;;
49858;SDS011;35756;52.346;13.622;2022-12-11T10:15:48;458.83;;;434.90;;
49858;SDS011;35756;52.346;13.622;2022-12-11T10:18:19;612.03;;;579.85;;
49858;SDS011;35756;52.346;13.622;2022-12-11T10:20:49;711.92;;;672.33;;
49858;SDS011;35756;52.346;13.622;2022-12-11T10:23:19;516.80;;;489.77;;
49858;SDS011;35756;52.346;13.622;2022-12-11T10:26:01;695.35;;;657.38;;
49858;SDS011;35756;52.346;13.622;2022-12-11T10:28:30;659.05;;;623.25;;
49858;SDS011;35756;52.346;13.622;2022-12-11T10:31:02;646.28;;;610.28;;
49858;SDS011;35756;52.346;13.622;2022-12-11T10:33:33;564.70;;;533.75;;
49858;SDS011;35756;52.346;13.622;2022-12-11T10:36:08;631.80;;;598.80;;
49858;SDS011;35756;52.346;13.622;2022-12-11T10:38:39;650.25;;;614.45;;
49858;SDS011;35756;52.346;13.622;2022-12-11T10:41:11;582.67;;;550.53;;
49858;SDS011;35756;52.346;13.622;2022-12-11T10:43:39;664.42;;;627.75;;
49858;SDS011;35756;52.346;13.622;2022-12-11T10:46:12;689.35;;;651.80;;
49858;SDS011;35756;52.346;13.622;2022-12-11T10:48:47;671.33;;;633.58;;
49858;SDS011;35756;52.346;13.622;2022-12-11T10:51:17;645.22;;;610.67;;
49858;SDS011;35756;52.346;13.622;2022-12-11T10:53:47;704.25;;;666.08;;
49858;SDS011;35756;52.346;13.622;2022-12-11T10:56:14;597.08;;;563.53;;
49858;SDS011;35756;52.346;13.622;2022-12-11T10:58:45;741.22;;;698.67;;
49858;SDS011;35756;52.346;13.622;2022-12-11T11:01:15;547.55;;;517.60;;
49858;SDS011;35756;52.346;13.622;2022-12-11T11:03:55;611.45;;;577.10;;
49858;SDS011;35756;52.346;13.622;2022-12-11T11:06:21;664.72;;;628.22;;
49858;SDS011;35756;52.346;13.622;2022-12-11T11:08:51;517.45;;;489.52;;
49858;SDS011;35756;52.346;13.622;2022-12-11T11:13:48;606.63;;;573.95;;
49858;SDS011;35756;52.346;13.622;2022-12-11T11:16:14;557.80;;;527.83;;
49858;SDS011;35756;52.346;13.622;2022-12-11T11:18:41;626.20;;;592.75;;
49858;SDS011;35756;52.346;13.622;2022-12-11T11:23:40;407.85;;;385.88;;
49858;SDS011;35756;52.346;13.622;2022-12-11T11:26:06;601.13;;;568.15;;
49858;SDS011;35756;52.346;13.622;2022-12-11T11:28:34;672.10;;;636.38;;
49858;SDS011;35756;52.346;13.622;2022-12-11T11:31:13;638.30;;;604.55;;
49858;SDS011;35756;52.346;13.622;2022-12-11T11:33:49;636.58;;;601.38;;
49858;SDS011;35756;52.346;13.622;2022-12-11T11:36:22;612.10;;;579.03;;
49858;SDS011;35756;52.346;13.622;2022-12-11T11:41:28;725.42;;;684.47;;
49858;SDS011;35756;52.346;13.622;2022-12-11T11:43:58;563.80;;;534.05;;
49858;SDS011;35756;52.346;13.622;2022-12-11T11:46:26;574.97;;;543.58;;
49858;SDS011;35756;52.346;13.622;2022-12-11T11:52:00;442.75;;;419.35;;
49858;SDS011;35756;52.346;13.622;2022-12-11T11:54:42;666.55;;;629.45;;
49858;SDS011;35756;52.346;13.622;2022-12-11T11:57:14;670.85;;;632.85;;
49858;SDS011;35756;52.346;13.622;2022-12-11T11:59:44;705.03;;;664.13;;
49858;SDS011;35756;52.346;13.622;2022-12-11T12:02:15;697.22;;;657.03;;
49858;SDS011;35756;52.346;13.622;2022-12-11T12:04:42;659.67;;;622.40;;
49858;SDS011;35756;52.346;13.622;2022-12-11T12:09:50;539.65;;;511.33;;
49858;SDS011;35756;52.346;13.622;2022-12-11T12:12:44;641.55;;;606.33;;
49858;SDS011;35756;52.346;13.622;2022-12-11T12:15:20;626.72;;;591.65;;
49858;SDS011;35756;52.346;13.622;2022-12-11T12:18:29;613.67;;;579.97;;
49858;SDS011;35756;52.346;13.622;2022-12-11T12:26:30;567.88;;;537.53;;
49858;SDS011;35756;52.346;13.622;2022-12-11T12:34:38;472.50;;;445.25;;
49858;SDS011;35756;52.346;13.622;2022-12-11T12:37:30;530.58;;;501.38;;
49858;SDS011;35756;52.346;13.622;2022-12-11T12:40:19;473.33;;;446.95;;
49858;SDS011;35756;52.346;13.622;2022-12-11T12:48:19;640.35;;;604.20;;
49858;SDS011;35756;52.346;13.622;2022-12-11T12:50:45;685.33;;;646.53;;
49858;SDS011;35756;52.346;13.622;2022-12-11T12:53:15;664.13;;;626.90;;
49858;SDS011;35756;52.346;13.622;2022-12-11T12:55:44;649.33;;;612.30;;
49858;SDS011;35756;52.346;13.622;2022-12-11T12:58:24;676.25;;;638.38;;
49858;SDS011;35756;52.346;13.622;2022-12-11T13:00:54;618.67;;;584.50;;
49858;SDS011;35756;52.346;13.622;2022-12-11T13:03:31;652.15;;;616.10;;
49858;SDS011;35756;52.346;13.622;2022-12-11T13:06:02;645.10;;;610.00;;
49858;SDS011;35756;52.346;13.622;2022-12-11T13:11:09;612.20;;;578.72;;
49858;SDS011;35756;52.346;13.622;2022-12-11T13:18:40;647.08;;;610.20;;
49858;SDS011;35756;52.346;13.622;2022-12-11T13:23:53;593.70;;;560.50;;
49858;SDS011;35756;52.346;13.622;2022-12-11T13:26:28;728.47;;;685.97;;
49858;SDS011;35756;52.346;13.622;2022-12-11T13:28:55;596.85;;;563.38;;
49858;SDS011;35756;52.346;13.622;2022-12-11T13:31:25;721.40;;;680.13;;
49858;SDS011;35756;52.346;13.622;2022-12-11T13:33:54;612.33;;;578.25;;
49858;SDS011;35756;52.346;13.622;2022-12-11T13:36:28;600.80;;;568.08;;
49858;SDS011;35756;52.346;13.622;2022-12-11T13:38:57;682.33;;;643.28;;
49858;SDS011;35756;52.346;13.622;2022-12-11T13:41:24;614.08;;;581.47;;
49858;SDS011;35756;52.346;13.622;2022-12-11T13:43:49;652.30;;;616.50;;
49858;SDS011;35756;52.346;13.622;2022-12-11T13:46:18;508.15;;;480.67;;
49858;SDS011;35756;52.346;13.622;2022-12-11T13:48:46;331.38;;;314.05;;
49858;SDS011;35756;52.346;13.622;2022-12-11T13:51:17;377.73;;;357.80;;
49858;SDS011;35756;52.346;13.622;2022-12-11T13:53:44;499.55;;;472.42;;
49858;SDS011;35756;52.346;13.622;2022-12-11T13:56:15;449.13;;;424.80;;
49858;SDS011;35756;52.346;13.622;2022-12-11T14:01:09;572.08;;;541.28;;
49858;SDS011;35756;52.346;13.622;2022-12-11T14:03:52;425.83;;;402.98;;
49858;SDS011;35756;52.346;13.622;2022-12-11T14:06:19;266.52;;;252.52;;
49858;SDS011;35756;52.346;13.622;2022-12-11T14:08:46;271.00;;;255.77;;
49858;SDS011;35756;52.346;13.622;2022-12-11T14:11:17;334.73;;;316.80;;
49858;SDS011;35756;52.346;13.622;2022-12-11T14:16:29;545.58;;;517.00;;
49858;SDS011;35756;52.346;13.622;2022-12-11T14:18:57;271.33;;;256.20;;
49858;SDS011;35756;52.346;13.622;2022-12-11T14:21:27;156.75;;;148.07;;
49858;SDS011;35756;52.346;13.622;2022-12-11T14:24:00;102.80;;;96.38;;
49858;SDS011;35756;52.346;13.622;2022-12-11T14:26:28;128.80;;;120.75;;
49858;SDS011;35756;52.346;13.622;2022-12-11T14:28:55;103.85;;;97.25;;
49858;SDS011;35756;52.346;13.622;2022-12-11T14:31:31;77.57;;;71.60;;
49858;SDS011;35756;52.346;13.622;2022-12-11T14:34:06;91.38;;;84.25;;
49858;SDS011;35756;52.346;13.622;2022-12-11T14:36:35;78.82;;;73.35;;
49858;SDS011;35756;52.346;13.622;2022-12-11T14:39:02;119.13;;;111.85;;
49858;SDS011;35756;52.346;13.622;2022-12-11T14:41:33;82.38;;;76.65;;
49858;SDS011;35756;52.346;13.622;2022-12-11T14:44:05;121.30;;;113.43;;
49858;SDS011;35756;52.346;13.622;2022-12-11T14:46:36;59.78;;;55.05;;
49858;SDS011;35756;52.346;13.622;2022-12-11T14:51:51;90.57;;;84.57;;
49858;SDS011;35756;52.346;13.622;2022-12-11T14:54:20;83.63;;;77.47;;
49858;SDS011;35756;52.346;13.622;2022-12-11T14:56:57;78.65;;;73.45;;
49858;SDS011;35756;52.346;13.622;2022-12-11T14:59:24;84.63;;;78.88;;
49858;SDS011;35756;52.346;13.622;2022-12-11T15:02:00;108.85;;;102.28;;